Share

Buffalo, OH (43722)

Zanesville Municipal (KZZV) Elev 899 ft | 39.94 °N, 81.89 °W | Change Station

Current weather conditions updated 19 minutes ago

Clear
Clear
45 °F
Feels Like 43 °F
N
5
Wind Variable Wind from ESE
Sunrise 6:43 AM
Sunset 8:07 PM
Moon Waning Gibbous

Today is forecast to be Warmer than yesterday.

Pressure 30.29 in
Visibility 10.0 miles
Clouds Clear
Windchill 43 °F
Dew Point 27 °F
Humidity 49%
Rainfall 0.00 in
Snow Depth Not available.
UV 0 out of 16
Pollen 10.30 out of 12
Air Quality Not available.
Flu Activity Local Activity
METAR KZZV 180853Z AUTO 12004KT 10SM CLR 07/M03 A3028 RMK AO2 SLP255 T00721028 55002 TSNO

More Conditions Fewer Conditions

Pressure 30.29 in
Visibility 10.0 miles
Clouds Clear
Windchill 43 °F
Dew Point 27 °F
Humidity 49%
Rainfall 0.00 in
Snow Depth Not available.
UV 0 out of 16
Pollen 10.30 out of 12
Air Quality Not available.
Flu Activity Local Activity
METAR KZZV 180853Z AUTO 12004KT 10SM CLR 07/M03 A3028 RMK AO2 SLP255 T00721028 55002 TSNO

More Conditions Fewer Conditions

10-Day Forecast

Almanac

Astronomy

Apr. 18, 2014 Rise Set
Actual Time 6:43 AM EDT 8:07 PM EDT
Civil Twilight 6:15 AM EDT 8:35 PM EDT
Nautical Twilight 5:41 AM EDT 9:09 PM EDT
Astronomical Twilight 5:06 AM EDT 9:45 PM EDT
Moon 11:51 PM EDT 9:04 AM EDT
Length of Visible Light 14h 20m
Length of Day
13h 23m
Tomorrow will be 2m 28s longer.
Waning Gibbous, 89% of the Moon is Illuminated
Today
Waning Gibbous
Apr 22
Last Quarter
Apr 29
New
May 6
First Quarter
May 14
Full

Today's Extremes

State Highs State Lows

Community

  • SUNRISE THROUGH THE TREES.
    SUNRISE THROUGH THE TREES.
  • Dog Wood Blossoms
    Dog Wood Blossoms
  • Morning Light
    Morning Light
  • New Day
    New Day
  • Lake Michigan Sunrise
    Lake Michigan Sunrise

WunderPhotos

Upload Photos

1,702,299 photos uploaded!

WunderBlogs® & News

Nearby

Snow Depth

Station Depth Elevation
No new snow has been reported.

Coastal Water Temperatures

Place Temperature
No Stations Reporting

Earthquake Activity

City Distance Mag. Time & Date
No recent earthquake activity has been reported nearby.
Minimum magnitude displayed is 2.5.

Nearby Weather Stations

Station Location Temp. Windchill Dew Point Humidity Wind Precip. Elev Updated Type
Heller Drive, Newcomerstown, OH 38.6 °F 39 °F 33 °F 80% NE  at  0.0 mph 0.00 in / hr 794 ft 5:12 AM EDT Rapid Fire

Show More Stations Show Fewer Stations

What do you think?

We're not finished. Please let us know what you like, what you don't like, and what you are still missing.